createdAt,value
2022-10-16T00:01:43.806Z,15.10
2022-10-16T00:04:14.548Z,15.10
2022-10-16T00:06:45.858Z,15.00
2022-10-16T00:09:17.403Z,15.00
2022-10-16T00:11:47.458Z,15.00
2022-10-16T00:14:18.426Z,14.90
2022-10-16T00:16:46.751Z,14.90
2022-10-16T00:19:19.689Z,14.90
2022-10-16T00:21:48.485Z,14.90
2022-10-16T00:24:26.313Z,14.90
2022-10-16T00:27:00.271Z,14.90
2022-10-16T00:29:30.413Z,14.90
2022-10-16T00:31:58.861Z,14.80
2022-10-16T00:34:29.431Z,14.80
2022-10-16T00:36:57.687Z,14.70
2022-10-16T00:39:26.124Z,14.70
2022-10-16T00:41:58.894Z,14.70
2022-10-16T00:44:51.718Z,14.70
2022-10-16T00:47:27.362Z,14.60
2022-10-16T00:50:00.599Z,14.60
2022-10-16T00:52:29.168Z,14.60
2022-10-16T00:54:58.513Z,14.60
2022-10-16T00:57:28.298Z,14.60
2022-10-16T00:59:57.198Z,14.60
2022-10-16T01:02:25.536Z,14.60
2022-10-16T01:04:55.567Z,14.60
2022-10-16T01:07:37.411Z,14.60
2022-10-16T01:10:17.082Z,14.60
2022-10-16T01:12:52.326Z,14.60
2022-10-16T01:15:27.551Z,14.70
2022-10-16T01:18:03.488Z,14.70
2022-10-16T01:20:35.271Z,14.70
2022-10-16T01:23:22.971Z,14.70
2022-10-16T01:26:02.506Z,14.70
2022-10-16T01:28:38.740Z,14.80
2022-10-16T01:31:07.150Z,14.80
2022-10-16T01:33:41.014Z,14.80
2022-10-16T01:36:17.865Z,14.80
2022-10-16T01:38:48.676Z,14.80
2022-10-16T01:41:21.446Z,14.90
2022-10-16T01:43:57.748Z,14.90
2022-10-16T01:46:26.905Z,14.80
2022-10-16T01:48:55.986Z,14.70
2022-10-16T01:51:25.523Z,14.70
2022-10-16T01:54:00.761Z,14.80
2022-10-16T01:56:29.828Z,14.90
2022-10-16T01:59:04.918Z,14.90
2022-10-16T02:01:35.643Z,15.00
2022-10-16T02:04:13.460Z,15.00
2022-10-16T02:06:41.637Z,15.00
2022-10-16T02:09:09.887Z,15.10
2022-10-16T02:11:38.062Z,15.10
2022-10-16T02:14:09.768Z,15.10
2022-10-16T02:16:40.086Z,15.10
2022-10-16T02:19:08.971Z,15.20
2022-10-16T02:21:42.793Z,15.20
2022-10-16T02:24:16.592Z,15.10
2022-10-16T02:26:49.732Z,15.20
2022-10-16T02:29:24.913Z,15.20
2022-10-16T02:32:00.859Z,15.20
2022-10-16T02:34:31.550Z,15.20
2022-10-16T02:37:03.661Z,15.20
2022-10-16T02:39:32.842Z,15.20
2022-10-16T02:42:04.451Z,15.20
2022-10-16T02:44:35.704Z,15.20
2022-10-16T02:47:03.835Z,15.20
2022-10-16T02:49:33.592Z,15.20
2022-10-16T02:52:03.418Z,15.30
2022-10-16T02:54:32.919Z,15.30
2022-10-16T02:57:01.044Z,15.30
2022-10-16T02:59:29.228Z,15.30
2022-10-16T03:01:58.760Z,15.30
2022-10-16T03:04:26.858Z,15.20
2022-10-16T03:06:56.237Z,15.20
2022-10-16T03:09:24.348Z,15.20
2022-10-16T03:11:53.196Z,15.20
2022-10-16T03:14:21.325Z,15.20
2022-10-16T03:16:49.460Z,15.20
2022-10-16T03:19:20.047Z,15.20
2022-10-16T03:21:48.316Z,15.20
2022-10-16T03:24:16.423Z,15.40
2022-10-16T03:26:47.325Z,15.30
2022-10-16T03:29:15.400Z,15.30
2022-10-16T03:31:43.586Z,15.20
2022-10-16T03:34:11.738Z,15.20
2022-10-16T03:36:41.185Z,15.20
2022-10-16T03:39:10.640Z,15.20
2022-10-16T03:41:41.243Z,15.20
2022-10-16T03:44:09.604Z,15.30
2022-10-16T03:46:37.689Z,15.40
2022-10-16T03:49:08.864Z,15.40
2022-10-16T03:51:38.413Z,15.40
2022-10-16T03:54:07.936Z,15.40
2022-10-16T03:56:36.076Z,15.30
2022-10-16T03:59:04.230Z,15.30
2022-10-16T04:01:32.767Z,15.20
2022-10-16T04:04:00.944Z,15.20
2022-10-16T04:06:29.180Z,15.20
2022-10-16T04:08:57.452Z,15.20
2022-10-16T04:11:28.173Z,15.20
2022-10-16T04:13:56.269Z,15.20
2022-10-16T04:16:24.365Z,15.30
2022-10-16T04:18:52.429Z,15.30
2022-10-16T04:21:20.545Z,15.30
2022-10-16T04:23:50.270Z,15.30
2022-10-16T04:26:18.483Z,15.30
2022-10-16T04:28:48.074Z,15.30
2022-10-16T04:31:18.700Z,15.30
2022-10-16T04:33:47.011Z,15.30
2022-10-16T04:36:15.661Z,15.30
2022-10-16T04:38:46.859Z,15.30
2022-10-16T04:41:17.512Z,15.30
2022-10-16T04:43:46.972Z,15.20
2022-10-16T04:46:15.137Z,15.30
2022-10-16T04:48:43.313Z,15.30
2022-10-16T04:51:12.695Z,15.20
2022-10-16T04:53:43.706Z,15.30
2022-10-16T06:01:27.839Z,15.30
2022-10-16T06:03:55.884Z,15.30
2022-10-16T06:06:29.111Z,15.40
2022-10-16T06:08:58.536Z,15.40
2022-10-16T06:11:29.100Z,15.50
2022-10-16T06:14:02.641Z,15.60
2022-10-16T06:16:32.124Z,15.70
2022-10-16T06:19:00.931Z,15.70
2022-10-16T06:21:30.297Z,15.80
2022-10-16T06:23:59.377Z,15.90
2022-10-16T06:26:29.794Z,15.90
2022-10-16T06:29:01.356Z,15.90
2022-10-16T06:31:34.499Z,16.00
2022-10-16T06:34:03.205Z,16.00
2022-10-16T06:36:31.464Z,16.00
2022-10-16T06:38:59.520Z,16.00
2022-10-16T06:41:27.725Z,16.00
2022-10-16T06:43:55.854Z,16.00
2022-10-16T06:47:28.723Z,16.10
2022-10-16T06:50:12.007Z,16.30
2022-10-16T06:53:06.756Z,16.40
2022-10-16T06:58:31.624Z,16.60
2022-10-16T07:01:17.893Z,16.70
2022-10-16T07:03:47.756Z,16.80
2022-10-16T07:06:19.599Z,16.90
2022-10-16T07:08:52.024Z,16.90
2022-10-16T07:11:27.057Z,16.90
2022-10-16T07:13:56.536Z,16.80
2022-10-16T07:16:36.651Z,16.80
2022-10-16T07:19:05.052Z,16.70
2022-10-16T07:21:37.389Z,16.70
2022-10-16T07:24:07.621Z,16.80
2022-10-16T07:26:37.723Z,16.80
2022-10-16T07:29:06.299Z,16.80
2022-10-16T07:31:38.854Z,16.90
2022-10-16T07:34:06.857Z,17.00
2022-10-16T07:36:36.588Z,17.00
2022-10-16T07:39:05.092Z,17.10
2022-10-16T07:41:37.848Z,17.10
2022-10-16T07:44:07.131Z,17.10
2022-10-16T07:46:38.127Z,17.10
2022-10-16T07:49:06.542Z,17.10
2022-10-16T07:51:36.129Z,17.20
2022-10-16T07:54:09.088Z,17.30
2022-10-16T07:56:39.868Z,17.40
2022-10-16T07:59:11.048Z,17.40
2022-10-16T08:01:42.031Z,17.50
2022-10-16T08:04:10.894Z,17.60
2022-10-16T08:06:44.079Z,17.70
2022-10-16T08:09:15.493Z,17.80
2022-10-16T08:11:47.758Z,17.90
2022-10-16T08:14:16.064Z,18.00
2022-10-16T08:16:44.447Z,18.10
2022-10-16T08:19:18.434Z,18.20
2022-10-16T08:21:52.659Z,18.10
2022-10-16T08:24:20.851Z,18.10
2022-10-16T08:26:49.230Z,18.10
2022-10-16T08:29:19.563Z,18.20
2022-10-16T08:31:47.699Z,18.30
2022-10-16T08:34:20.168Z,18.40
2022-10-16T08:36:55.478Z,18.60
2022-10-16T08:39:26.916Z,18.70
2022-10-16T08:42:38.387Z,18.90
2022-10-16T08:45:34.871Z,19.10
2022-10-16T08:48:27.290Z,19.30
2022-10-16T08:50:56.998Z,19.60
2022-10-16T08:53:33.396Z,19.60
2022-10-16T09:03:35.226Z,20.00
2022-10-16T09:06:12.406Z,19.90
2022-10-16T09:09:14.279Z,19.80
2022-10-16T09:11:48.531Z,19.70
2022-10-16T09:14:37.514Z,19.60
2022-10-16T09:17:22.807Z,19.60
2022-10-16T09:19:59.646Z,19.50
2022-10-16T09:22:31.061Z,19.60
2022-10-16T09:25:03.580Z,19.80
2022-10-16T09:27:31.732Z,19.80
2022-10-16T09:30:01.350Z,20.00
2022-10-16T09:32:30.937Z,20.30
2022-10-16T09:34:59.268Z,20.60
2022-10-16T09:37:28.908Z,20.60
2022-10-16T09:39:57.936Z,20.50
2022-10-16T09:42:33.388Z,20.60
2022-10-16T09:45:01.594Z,20.30
2022-10-16T09:47:35.482Z,20.40
2022-10-16T09:50:29.091Z,20.40
2022-10-16T09:53:13.767Z,20.20
2022-10-16T09:55:51.601Z,20.40
2022-10-16T09:58:26.472Z,20.40
2022-10-16T10:04:07.771Z,20.50
2022-10-16T10:09:45.939Z,20.40
2022-10-16T10:12:26.975Z,20.30
2022-10-16T10:14:58.912Z,20.20
2022-10-16T10:17:29.237Z,20.20
2022-10-16T10:20:03.285Z,20.20
2022-10-16T10:22:35.512Z,20.20
2022-10-16T10:25:17.873Z,20.10
2022-10-16T10:28:20.584Z,19.90
2022-10-16T10:30:58.021Z,19.90
2022-10-16T10:33:33.935Z,19.90
2022-10-16T10:36:22.422Z,19.90
2022-10-16T10:38:56.140Z,20.00
2022-10-16T10:42:14.110Z,20.20
2022-10-16T10:44:59.637Z,20.40
2022-10-16T10:47:43.221Z,20.70
2022-10-16T10:50:23.817Z,20.90
2022-10-16T10:53:25.102Z,21.10
2022-10-16T10:56:32.513Z,21.20
2022-10-16T10:59:35.617Z,21.30
2022-10-16T11:06:10.024Z,21.30
2022-10-16T11:08:45.981Z,21.30
2022-10-16T11:11:24.820Z,21.20
2022-10-16T11:14:02.168Z,21.20
2022-10-16T11:16:40.338Z,21.30
2022-10-16T11:19:16.994Z,21.40
2022-10-16T11:21:58.102Z,21.60
2022-10-16T11:24:37.556Z,21.70
2022-10-16T11:27:13.920Z,22.00
2022-10-16T11:29:51.187Z,22.30
2022-10-16T11:32:25.774Z,22.60
2022-10-16T11:34:59.615Z,22.80
2022-10-16T11:37:36.223Z,22.80
2022-10-16T11:40:27.390Z,22.80
2022-10-16T11:43:01.880Z,22.90
2022-10-16T11:49:21.038Z,23.00
2022-10-16T11:51:58.494Z,22.90
2022-10-16T11:54:34.730Z,22.90
2022-10-16T11:57:15.886Z,22.80
2022-10-16T11:59:48.335Z,22.60
2022-10-16T12:02:42.880Z,22.60
2022-10-16T12:05:22.525Z,22.50
2022-10-16T12:07:57.414Z,22.50
2022-10-16T12:10:30.142Z,22.40
2022-10-16T12:12:58.701Z,22.40
2022-10-16T12:15:54.239Z,22.40
2022-10-16T12:18:24.001Z,22.50
2022-10-16T12:20:59.916Z,22.40
2022-10-16T12:23:28.155Z,22.40
2022-10-16T12:26:03.644Z,22.40
2022-10-16T12:28:33.874Z,22.30
2022-10-16T12:31:03.683Z,22.30
2022-10-16T12:33:33.905Z,22.30
2022-10-16T12:36:04.593Z,22.30
2022-10-16T12:38:39.750Z,22.30
2022-10-16T12:41:11.823Z,22.40
2022-10-16T12:43:43.354Z,22.40
2022-10-16T12:46:39.117Z,22.40
2022-10-16T12:49:22.231Z,22.40
2022-10-16T12:51:51.414Z,22.40
2022-10-16T12:54:22.661Z,22.50
2022-10-16T12:57:11.002Z,22.50
2022-10-16T12:59:47.037Z,22.50
2022-10-16T13:02:41.306Z,22.50
2022-10-16T13:05:24.240Z,22.50
2022-10-16T13:08:05.222Z,22.50
2022-10-16T13:10:40.532Z,22.60
2022-10-16T13:13:36.094Z,22.80
2022-10-16T13:16:15.579Z,23.10
2022-10-16T13:18:52.576Z,23.30
2022-10-16T13:21:33.333Z,23.40
2022-10-16T13:24:09.288Z,23.40
2022-10-16T13:26:44.379Z,23.30
2022-10-16T13:29:36.439Z,23.20
2022-10-16T13:32:12.052Z,23.10
2022-10-16T13:34:46.787Z,23.00
2022-10-16T13:37:23.960Z,22.90
2022-10-16T13:39:52.701Z,22.80
2022-10-16T13:42:28.067Z,22.70
2022-10-16T13:44:58.643Z,22.60
2022-10-16T13:47:28.386Z,22.60
2022-10-16T13:50:03.699Z,22.50
2022-10-16T13:52:31.872Z,22.40
2022-10-16T13:55:02.076Z,22.40
2022-10-16T13:57:30.910Z,22.40
2022-10-16T14:00:00.309Z,22.40
2022-10-16T14:02:33.373Z,22.30
2022-10-16T14:05:01.539Z,22.30
2022-10-16T14:07:34.563Z,22.30
2022-10-16T14:10:05.538Z,22.30
2022-10-16T14:12:34.393Z,22.40
2022-10-16T14:15:04.592Z,22.40
2022-10-16T14:17:35.862Z,22.40
2022-10-16T14:20:07.626Z,22.40
2022-10-16T14:22:38.071Z,22.40
2022-10-16T14:25:31.416Z,22.40
2022-10-16T14:30:35.072Z,22.40
2022-10-16T14:33:04.660Z,22.40
2022-10-16T14:35:34.831Z,22.40
2022-10-16T14:38:04.646Z,22.40
2022-10-16T14:40:34.547Z,22.30
2022-10-16T14:43:03.288Z,22.30
2022-10-16T14:45:35.178Z,22.40
2022-10-16T14:48:06.015Z,22.40
2022-10-16T14:50:37.265Z,22.40
2022-10-16T14:53:13.411Z,22.30
2022-10-16T14:55:42.361Z,22.20
2022-10-16T14:58:15.542Z,22.00
2022-10-16T15:00:44.951Z,21.90
2022-10-16T15:03:13.062Z,21.70
2022-10-16T15:05:41.092Z,21.50
2022-10-16T15:08:09.296Z,21.40
2022-10-16T15:10:41.724Z,21.30
2022-10-16T15:13:13.724Z,21.20
2022-10-16T15:15:47.488Z,21.10
2022-10-16T15:18:21.072Z,21.00
2022-10-16T15:20:51.949Z,20.90
2022-10-16T15:23:22.608Z,20.80
2022-10-16T15:25:52.483Z,20.70
2022-10-16T15:28:21.507Z,20.60
2022-10-16T15:30:56.543Z,20.50
2022-10-16T15:33:28.491Z,20.50
2022-10-16T15:35:57.927Z,20.40
2022-10-16T15:38:26.715Z,20.40
2022-10-16T15:40:54.737Z,20.40
2022-10-16T15:43:23.007Z,20.30
2022-10-16T15:46:02.289Z,20.30
2022-10-16T15:48:34.062Z,20.30
2022-10-16T15:51:07.985Z,20.10
2022-10-16T15:53:36.448Z,20.00
2022-10-16T15:56:05.369Z,20.00
2022-10-16T15:58:33.923Z,19.90
2022-10-16T16:01:05.844Z,19.80
2022-10-16T16:03:34.417Z,19.70
2022-10-16T16:06:06.883Z,19.60
2022-10-16T16:08:35.862Z,19.50
2022-10-16T16:11:05.836Z,19.40
2022-10-16T16:13:34.654Z,19.40
2022-10-16T16:16:09.368Z,19.30
2022-10-16T16:18:37.633Z,19.40
2022-10-16T16:21:06.570Z,19.30
2022-10-16T16:23:36.760Z,19.30
2022-10-16T16:26:06.702Z,19.30
2022-10-16T16:28:34.918Z,19.30
2022-10-16T16:31:05.113Z,19.20
2022-10-16T16:33:33.403Z,19.00
2022-10-16T16:36:01.904Z,19.00
2022-10-16T16:38:30.521Z,18.90
2022-10-16T16:40:58.871Z,18.80
2022-10-16T16:43:27.797Z,18.90
2022-10-16T16:45:56.854Z,18.90
2022-10-16T16:48:26.292Z,18.80
2022-10-16T16:50:54.335Z,18.70
2022-10-16T16:53:22.792Z,18.60
2022-10-16T16:55:51.016Z,18.60
2022-10-16T16:58:19.369Z,18.50
2022-10-16T17:00:56.540Z,18.40
2022-10-16T17:03:36.384Z,18.50
2022-10-16T17:06:10.146Z,18.50
2022-10-16T17:08:50.401Z,18.60
2022-10-16T17:11:20.189Z,18.50
2022-10-16T17:13:55.544Z,18.50
2022-10-16T17:16:28.852Z,18.50
2022-10-16T17:19:02.395Z,18.60
2022-10-16T17:21:38.230Z,18.60
2022-10-16T17:24:14.250Z,18.60
2022-10-16T17:26:44.878Z,18.60
2022-10-16T17:29:15.093Z,18.60
2022-10-16T17:31:44.731Z,18.60
2022-10-16T17:34:14.552Z,18.70
2022-10-16T17:36:47.085Z,18.70
2022-10-16T17:39:19.764Z,18.70
2022-10-16T17:41:49.094Z,18.70
2022-10-16T17:44:20.992Z,18.60
2022-10-16T17:46:50.273Z,18.60
2022-10-16T17:51:54.673Z,18.70
2022-10-16T17:54:33.400Z,18.70
2022-10-16T17:57:01.510Z,18.70
2022-10-16T17:59:29.666Z,18.70
2022-10-16T18:01:57.897Z,18.70
2022-10-16T18:04:30.667Z,18.70
2022-10-16T18:07:00.504Z,18.50
2022-10-16T18:09:28.977Z,18.30
2022-10-16T18:12:02.973Z,18.20
2022-10-16T18:14:33.234Z,18.20
2022-10-16T18:17:01.699Z,18.50
2022-10-16T18:19:31.393Z,18.60
2022-10-16T18:21:59.922Z,18.60
2022-10-16T18:24:28.385Z,18.70
2022-10-16T18:26:57.933Z,18.70
2022-10-16T18:29:27.898Z,18.70
2022-10-16T18:31:57.612Z,18.60
2022-10-16T18:34:54.127Z,18.50
2022-10-16T18:37:42.516Z,18.50
2022-10-16T18:41:00.679Z,18.50
2022-10-16T18:44:14.318Z,18.40
2022-10-16T18:54:55.480Z,18.20
2022-10-16T19:02:11.299Z,18.60
2022-10-16T19:16:19.246Z,18.50
2022-10-16T19:33:09.298Z,17.90
2022-10-16T19:35:40.158Z,17.90
2022-10-16T19:38:18.621Z,17.90
2022-10-16T19:42:03.214Z,18.20
2022-10-16T19:48:56.376Z,18.40
2022-10-16T21:14:33.044Z,17.30
2022-10-16T21:17:04.000Z,17.40
2022-10-16T21:19:32.353Z,17.30
2022-10-16T21:22:03.810Z,17.20
2022-10-16T21:24:32.550Z,17.40
2022-10-16T21:27:01.085Z,17.50
2022-10-16T21:29:56.760Z,17.50
2022-10-16T21:32:27.093Z,17.60
2022-10-16T21:34:57.460Z,17.70
2022-10-16T21:37:31.368Z,17.60
2022-10-16T21:40:24.149Z,17.80
2022-10-16T21:43:00.127Z,17.70
2022-10-16T21:45:36.831Z,17.70
2022-10-16T21:48:37.239Z,17.50
2022-10-16T21:51:08.228Z,17.40
2022-10-16T21:53:51.950Z,17.40
2022-10-16T21:56:28.093Z,17.50
2022-10-16T21:58:58.034Z,17.70
2022-10-16T22:02:10.349Z,17.80
2022-10-16T22:04:42.843Z,17.80
2022-10-16T22:07:18.492Z,17.70
2022-10-16T22:10:18.396Z,17.70
2022-10-16T22:12:49.629Z,17.70
2022-10-16T22:15:35.824Z,17.60
2022-10-16T22:18:10.322Z,17.50
2022-10-16T22:20:49.311Z,17.40
2022-10-16T22:23:20.681Z,17.40
2022-10-16T22:25:54.589Z,17.30
2022-10-16T22:28:32.806Z,17.20
2022-10-16T22:35:02.424Z,17.10
2022-10-16T22:37:52.612Z,17.20
2022-10-16T22:40:33.221Z,17.20
2022-10-16T22:43:30.721Z,17.30
2022-10-16T22:47:16.449Z,17.30
2022-10-16T22:49:41.271Z,17.20
2022-10-16T22:52:31.845Z,17.20
2022-10-16T22:55:07.805Z,17.10
2022-10-16T23:03:54.165Z,17.20
2022-10-16T23:06:37.702Z,17.30
2022-10-16T23:09:42.794Z,17.60
2022-10-16T23:12:31.656Z,17.50
2022-10-16T23:15:22.588Z,17.40
2022-10-16T23:18:03.450Z,17.50
2022-10-16T23:20:57.227Z,17.50
2022-10-16T23:24:23.936Z,17.70
2022-10-16T23:27:25.415Z,17.60
2022-10-16T23:30:01.614Z,17.50
2022-10-16T23:33:07.986Z,17.50
2022-10-16T23:36:05.913Z,17.50
2022-10-16T23:38:41.100Z,17.60
2022-10-16T23:41:23.020Z,17.70
2022-10-16T23:44:10.493Z,17.70
2022-10-16T23:47:09.412Z,17.70
2022-10-16T23:50:30.778Z,17.80
2022-10-16T23:52:46.172Z,17.80
2022-10-16T23:55:27.389Z,17.70
